Time;durP1;ratioP1;P1;durP2;ratioP2;P2;SDS_P1;SDS_P2;PMS_P1;PMS_P2;Temp;Humidity;BMP_temperature;BMP_pressure;BME280_temperature;BME280_humidity;BME280_pressure;Samples;Min_cycle;Max_cycle;Signal;HPM_P1;HPM_P2
2021/08/15 00:01:04;;;;;;;3.50;2.40;;;;;;;29.27;43.36;95389.25;5059838;28;20060;-76
2021/08/15 00:03:30;;;;;;;3.20;2.40;;;;;;;29.27;43.75;95405.03;5046008;28;20037;-76
2021/08/15 00:05:55;;;;;;;2.78;2.40;;;;;;;29.20;43.57;95383.66;5044304;28;20021;-77
2021/08/15 00:08:21;;;;;;;2.92;2.35;;;;;;;29.27;43.34;95388.53;5047687;28;20033;-75
2021/08/15 00:10:46;;;;;;;3.20;2.65;;;;;;;29.28;43.81;95384.47;5046426;28;20025;-75
2021/08/15 00:13:12;;;;;;;3.22;2.42;;;;;;;29.25;43.87;95386.31;5046114;28;20025;-76
2021/08/15 00:15:37;;;;;;;3.35;2.67;;;;;;;29.26;43.83;95387.03;5028645;28;20038;-75
2021/08/15 00:18:03;;;;;;;3.45;2.78;;;;;;;29.20;43.98;95372.66;5047233;28;20208;-74
2021/08/15 00:20:28;;;;;;;2.88;2.35;;;;;;;29.25;43.30;95380.06;5029776;28;20471;-74
2021/08/15 00:22:54;;;;;;;2.80;2.35;;;;;;;29.25;43.50;95385.56;5026638;28;20037;-76
2021/08/15 00:25:19;;;;;;;3.08;2.45;;;;;;;29.25;43.98;95385.56;5046464;28;20028;-76
2021/08/15 00:27:45;;;;;;;3.30;2.40;;;;;;;29.23;44.07;95382.59;5044850;28;20020;-74
2021/08/15 00:30:11;;;;;;;2.90;2.30;;;;;;;29.23;43.80;95382.59;5046857;28;20017;-74
2021/08/15 00:32:37;;;;;;;3.42;2.60;;;;;;;29.23;43.78;95382.59;5046122;28;20029;-75
2021/08/15 00:35:04;;;;;;;3.10;2.50;;;;;;;29.23;43.95;95377.09;5046570;28;20025;-74
2021/08/15 00:37:30;;;;;;;3.40;2.60;;;;;;;29.23;43.39;95379.84;5046949;28;20032;-76
2021/08/15 00:39:56;;;;;;;3.13;2.70;;;;;;;29.23;43.55;95382.59;5045470;28;20056;-75
2021/08/15 00:42:21;;;;;;;3.00;2.40;;;;;;;29.23;43.79;95382.59;5046796;28;20678;-74
2021/08/15 00:44:47;;;;;;;2.88;2.53;;;;;;;29.21;43.62;95385.16;5046422;28;20052;-76
2021/08/15 00:47:12;;;;;;;3.45;2.80;;;;;;;29.21;43.41;95379.66;5044113;28;20048;-76
2021/08/15 00:49:38;;;;;;;2.60;2.22;;;;;;;29.21;43.35;95379.66;5046440;28;20032;-74
2021/08/15 00:52:05;;;;;;;2.78;2.47;;;;;;;29.21;43.97;95379.66;5045999;28;20040;-76
2021/08/15 00:54:30;;;;;;;3.38;2.70;;;;;;;29.19;43.92;95387.69;5043478;28;20488;-76
2021/08/15 00:56:56;;;;;;;3.30;2.50;;;;;;;29.21;43.34;95374.16;5040972;28;20082;-76
2021/08/15 00:59:21;;;;;;;3.40;2.70;;;;;;;29.21;43.98;95374.88;5027146;28;20388;-76
2021/08/15 01:01:51;;;;;;;2.38;2.10;;;;;;;29.20;43.35;95367.88;5044582;28;20104;-76
2021/08/15 01:04:16;;;;;;;;;;;;;;;29.19;43.90;95376.69;5046754;28;20110;-76
2021/08/15 01:06:42;;;;;;;3.30;2.60;;;;;;;29.18;43.92;95369.72;5044109;28;19994;-76
2021/08/15 01:09:07;;;;;;;3.00;2.67;;;;;;;29.12;43.64;95366.38;5044947;28;20098;-75
2021/08/15 01:11:33;;;;;;;2.90;2.40;;;;;;;29.20;43.32;95384.38;5043060;28;20032;-76
2021/08/15 01:14:04;;;;;;;2.78;2.42;;;;;;;29.20;44.00;95372.66;5046239;28;20028;-76
2021/08/15 01:16:29;;;;;;;3.75;3.10;;;;;;;29.20;43.89;95378.16;5044280;28;20430;-76
2021/08/15 01:18:54;;;;;;;3.95;3.03;;;;;;;29.18;43.54;95375.94;5044598;28;20032;-76
2021/08/15 01:21:20;;;;;;;3.85;2.83;;;;;;;29.17;43.62;95379.25;5046090;28;20083;-76
2021/08/15 01:23:45;;;;;;;2.70;2.30;;;;;;;29.18;43.83;95375.94;5046118;28;20033;-75
2021/08/15 01:26:17;;;;;;;3.40;2.50;;;;;;;29.18;43.98;95380.72;5043335;28;20032;-74
2021/08/15 01:28:43;;;;;;;3.05;2.70;;;;;;;29.19;43.41;95387.69;5045672;28;20028;-75
2021/08/15 01:31:09;;;;;;;3.05;2.65;;;;;;;29.18;43.43;95381.44;5042184;28;20033;-74
2021/08/15 01:33:37;;;;;;;3.03;2.72;;;;;;;29.18;43.79;95380.72;5045371;28;20116;-75
2021/08/15 01:36:03;;;;;;;3.45;2.60;;;;;;;29.18;43.38;95377.97;5059775;28;20028;-74
2021/08/15 01:38:31;;;;;;;3.53;3.10;;;;;;;29.17;43.38;95379.25;5045744;28;20474;-76
2021/08/15 01:40:57;;;;;;;3.28;2.75;;;;;;;29.17;43.49;95373.72;5045688;28;20036;-74
2021/08/15 01:43:23;;;;;;;2.88;2.30;;;;;;;29.18;43.38;95375.22;5045581;28;20120;-76
2021/08/15 01:45:49;;;;;;;3.55;2.72;;;;;;;29.17;43.23;95373.72;5044671;28;20036;-76
2021/08/15 01:48:14;;;;;;;3.05;2.63;;;;;;;29.17;43.76;95379.25;5045784;28;20701;-75
2021/08/15 01:50:40;;;;;;;3.33;2.47;;;;;;;29.16;43.63;95388.75;5044876;28;20039;-74
2021/08/15 01:53:10;;;;;;;3.72;2.97;;;;;;;29.15;44.07;95381.81;5045437;28;20033;-74
2021/08/15 01:55:39;;;;;;;3.00;2.42;;;;;;;29.16;43.74;95391.50;5040825;28;20056;-76
2021/08/15 01:58:06;;;;;;;3.58;2.50;;;;;;;29.17;43.19;95390.25;5043983;28;20025;-74
2021/08/15 02:00:31;;;;;;;3.03;2.65;;;;;;;29.15;43.36;95386.53;5043262;28;20439;-74
2021/08/15 02:02:57;;;;;;;4.85;2.72;;;;;;;29.16;43.71;95388.75;5045219;28;20040;-75
2021/08/15 02:05:22;;;;;;;3.28;2.70;;;;;;;29.15;43.92;95387.31;5043816;28;20032;-76
2021/08/15 02:07:51;;;;;;;3.05;2.67;;;;;;;29.14;43.20;95396.81;5044063;28;20025;-76
2021/08/15 02:10:17;;;;;;;3.25;2.90;;;;;;;29.14;43.39;95380.31;5043754;28;20120;-76
2021/08/15 02:12:42;;;;;;;3.33;2.78;;;;;;;29.11;43.47;95386.91;5044853;28;20029;-75
2021/08/15 02:15:08;;;;;;;3.50;2.60;;;;;;;29.12;43.53;95382.88;5042458;28;20267;-76
2021/08/15 02:17:34;;;;;;;2.75;2.55;;;;;;;29.13;43.98;95384.34;5045103;28;20025;-75
2021/08/15 02:19:59;;;;;;;2.63;2.42;;;;;;;29.10;43.92;95379.91;5044238;28;20025;-76
2021/08/15 02:22:24;;;;;;;3.10;2.60;;;;;;;29.07;43.47;95369.97;5044954;28;20025;-74
2021/08/15 02:24:50;;;;;;;3.22;2.63;;;;;;;29.12;44.28;95382.88;5045038;28;20060;-74
2021/08/15 02:27:16;;;;;;;3.03;2.47;;;;;;;29.12;43.67;95382.88;5043989;28;20036;-74
2021/08/15 02:29:41;;;;;;;3.83;2.72;;;;;;;29.12;43.94;95382.88;5044856;28;20024;-74
2021/08/15 02:32:07;;;;;;;3.13;2.83;;;;;;;29.13;43.76;95378.84;5043200;28;20411;-74
2021/08/15 02:34:32;;;;;;;3.03;2.60;;;;;;;29.11;43.55;95381.38;5045140;28;20495;-74
2021/08/15 02:36:57;;;;;;;3.63;2.80;;;;;;;29.11;43.97;95375.88;5044150;28;20090;-74
2021/08/15 02:39:23;;;;;;;2.90;2.60;;;;;;;29.10;44.06;95374.41;5044914;28;20035;-75
2021/08/15 02:41:48;;;;;;;3.15;2.47;;;;;;;29.08;43.68;95371.47;5060311;28;20448;-74
2021/08/15 02:44:14;;;;;;;3.00;2.67;;;;;;;29.08;43.47;95371.47;5044750;28;20807;-76
2021/08/15 02:46:39;;;;;;;2.80;2.40;;;;;;;29.10;43.48;95376.44;5042869;28;20028;-75
2021/08/15 02:49:05;;;;;;;3.78;3.03;;;;;;;29.08;43.44;95376.97;5045158;28;20021;-76
2021/08/15 02:51:31;;;;;;;2.90;2.60;;;;;;;29.09;43.49;95378.44;5044144;28;20360;-76
2021/08/15 02:53:56;;;;;;;3.13;2.38;;;;;;;29.08;43.37;95376.97;5044653;28;20067;-76
2021/08/15 02:56:22;;;;;;;3.05;2.53;;;;;;;29.08;43.37;95382.47;5044588;28;20147;-76
2021/08/15 02:58:47;;;;;;;3.65;2.90;;;;;;;29.07;43.96;95369.97;5040066;28;20039;-77
2021/08/15 03:01:12;;;;;;;3.00;2.70;;;;;;;29.07;44.26;95372.72;5043428;28;20102;-76
2021/08/15 03:03:38;;;;;;;3.47;2.63;;;;;;;29.05;44.05;95378.03;5042701;28;20522;-76
2021/08/15 03:06:03;;;;;;;3.60;3.05;;;;;;;29.07;43.61;95375.47;5041964;28;20139;-76
2021/08/15 03:08:29;;;;;;;3.20;2.35;;;;;;;28.98;43.97;95373.22;5041810;28;20482;-74
2021/08/15 03:10:54;;;;;;;3.25;2.50;;;;;;;29.07;44.00;95380.97;5042771;28;20055;-76
2021/08/15 03:13:20;;;;;;;3.13;2.70;;;;;;;29.05;43.53;95383.53;5043772;28;20025;-75
2021/08/15 03:15:46;;;;;;;3.20;2.90;;;;;;;29.03;44.03;95380.59;5042753;28;20040;-76
2021/08/15 03:18:17;;;;;;;3.22;2.92;;;;;;;29.06;43.34;95389.78;5048634;28;20024;-76
2021/08/15 03:20:44;;;;;;;4.32;2.72;;;;;;;29.04;43.71;95387.56;5051228;28;20028;-74
2021/08/15 03:23:09;;;;;;;3.30;2.72;;;;;;;29.05;43.87;95400.03;5053475;28;20032;-76
2021/08/15 03:25:37;;;;;;;3.67;2.88;;;;;;;29.06;43.78;95385.03;5050531;28;20044;-75
2021/08/15 03:28:04;;;;;;;3.08;2.65;;;;;;;29.06;43.48;95385.03;5050878;28;20025;-73
2021/08/15 03:30:29;;;;;;;3.15;2.70;;;;;;;29.07;43.59;95386.47;5050831;28;20108;-76
2021/08/15 03:32:55;;;;;;;3.83;2.90;;;;;;;29.06;43.83;95390.53;5049943;28;20033;-75
2021/08/15 03:35:20;;;;;;;3.63;2.60;;;;;;;29.06;44.14;95390.53;5049116;28;20029;-75
2021/08/15 03:37:46;;;;;;;3.25;2.80;;;;;;;29.03;43.46;95386.09;5047737;28;20029;-75
2021/08/15 03:40:12;;;;;;;3.97;3.00;;;;;;;29.04;43.80;95393.06;5048732;28;20033;-75
2021/08/15 03:42:37;;;;;;;2.88;2.58;;;;;;;29.05;43.69;95388.31;5046594;28;20021;-76
2021/08/15 03:45:07;;;;;;;3.63;2.63;;;;;;;29.05;44.20;95394.53;5048166;28;20021;-75
2021/08/15 03:47:32;;;;;;;3.70;2.75;;;;;;;29.01;43.63;95387.91;5045320;28;20032;-75
2021/08/15 03:49:59;;;;;;;2.90;2.50;;;;;;;29.04;43.47;95386.84;5046699;28;20041;-76
2021/08/15 03:52:24;;;;;;;3.58;2.70;;;;;;;29.04;43.89;95387.56;5046721;28;20562;-76
2021/08/15 03:54:50;;;;;;;3.13;2.67;;;;;;;29.04;43.50;95393.06;5045250;28;20087;-75
2021/08/15 03:57:17;;;;;;;3.67;2.90;;;;;;;29.03;43.98;95386.09;5046204;28;20025;-76
2021/08/15 03:59:43;;;;;;;3.38;2.80;;;;;;;29.03;43.87;95391.59;5046035;28;20507;-74
2021/08/15 04:02:08;;;;;;;3.33;2.90;;;;;;;29.03;43.89;95391.59;5045011;28;20052;-74
2021/08/15 04:04:34;;;;;;;2.88;2.58;;;;;;;29.02;43.85;95390.13;5046091;28;20037;-74
2021/08/15 04:06:59;;;;;;;3.25;2.80;;;;;;;29.03;43.70;95391.59;5043761;28;20032;-77
2021/08/15 04:09:25;;;;;;;3.17;2.88;;;;;;;29.05;44.00;95393.81;5047309;28;20021;-76
2021/08/15 04:11:50;;;;;;;3.42;2.70;;;;;;;28.96;44.33;95381.25;5027447;28;20171;-74
2021/08/15 04:14:16;;;;;;;3.17;2.88;;;;;;;29.04;44.00;95393.06;5046837;28;20036;-74
2021/08/15 04:16:41;;;;;;;3.60;2.72;;;;;;;29.03;43.36;95386.09;5045178;28;20071;-75
2021/08/15 04:19:07;;;;;;;3.53;2.63;;;;;;;29.03;43.61;95386.09;5047290;28;20045;-74
2021/08/15 04:21:32;;;;;;;3.78;2.67;;;;;;;29.04;44.05;95382.06;5047073;28;20048;-75
2021/08/15 04:23:58;;;;;;;3.85;2.80;;;;;;;29.04;43.94;95395.81;5046942;28;20037;-75
2021/08/15 04:26:23;;;;;;;3.13;2.80;;;;;;;29.05;43.61;95389.03;5044897;28;20036;-76
2021/08/15 04:28:49;;;;;;;3.20;2.70;;;;;;;29.05;43.99;95402.06;5045282;28;20032;-76
2021/08/15 04:31:14;;;;;;;5.03;3.35;;;;;;;29.04;44.09;95393.06;5045019;28;20416;-76
2021/08/15 04:33:40;;;;;;;3.47;3.08;;;;;;;29.05;43.99;95400.03;5046082;28;20510;-74
2021/08/15 04:36:05;;;;;;;3.35;2.72;;;;;;;29.07;43.59;95403.00;5044572;28;20411;-76
2021/08/15 04:38:30;;;;;;;3.60;2.85;;;;;;;29.07;43.80;95397.50;5046834;28;20032;-76
2021/08/15 04:40:56;;;;;;;3.70;2.95;;;;;;;29.08;44.04;95404.47;5046992;28;20415;-76
2021/08/15 04:43:21;;;;;;;3.28;2.67;;;;;;;29.09;43.88;95405.97;5046688;28;20056;-77
2021/08/15 04:45:47;;;;;;;3.53;2.95;;;;;;;29.08;43.30;95404.47;5047019;28;20484;-75
2021/08/15 04:48:14;;;;;;;3.08;2.58;;;;;;;29.09;43.30;95403.22;5044258;28;20055;-75
2021/08/15 04:50:39;;;;;;;4.10;2.95;;;;;;;29.12;43.95;95399.38;5027996;28;20021;-75
2021/08/15 04:53:04;;;;;;;3.67;2.80;;;;;;;29.14;43.66;95391.31;5044203;28;20415;-74
2021/08/15 04:55:30;;;;;;;2.95;2.63;;;;;;;29.15;44.03;95398.31;5045747;28;20025;-75
2021/08/15 04:57:56;;;;;;;3.35;2.60;;;;;;;29.15;43.41;95403.81;5044439;28;20059;-75
2021/08/15 05:00:21;;;;;;;3.85;3.45;;;;;;;29.17;43.31;95406.03;5046409;28;20033;-76
2021/08/15 05:02:46;;;;;;;3.10;2.80;;;;;;;29.17;43.99;95409.50;5046524;28;20029;-77
2021/08/15 05:05:12;;;;;;;3.25;2.60;;;;;;;29.16;43.29;95410.75;5046103;28;20036;-76
2021/08/15 05:07:37;;;;;;;3.33;2.85;;;;;;;29.19;43.39;95406.94;5043993;28;20029;-75
2021/08/15 05:10:03;;;;;;;3.65;2.95;;;;;;;29.18;43.80;95408.97;5046514;28;20199;-75
2021/08/15 05:12:29;;;;;;;3.20;2.63;;;;;;;29.19;43.74;95412.44;5044332;28;20035;-74
2021/08/15 05:14:54;;;;;;;3.63;2.80;;;;;;;29.19;43.13;95412.44;5045481;28;20036;-74
2021/08/15 05:17:19;;;;;;;4.00;3.35;;;;;;;29.22;42.98;95422.38;5044812;28;20052;-73
2021/08/15 05:19:45;;;;;;;3.20;2.90;;;;;;;29.20;43.55;95413.94;5044440;28;20020;-74
2021/08/15 05:22:10;;;;;;;3.30;2.80;;;;;;;29.22;43.08;95425.13;5045368;28;20021;-76
2021/08/15 05:24:36;;;;;;;2.88;2.58;;;;;;;29.22;43.70;95425.13;5046067;28;20392;-76
2021/08/15 05:27:01;;;;;;;3.40;2.80;;;;;;;29.21;43.41;95435.41;5044106;28;20033;-74
2021/08/15 05:29:27;;;;;;;3.63;2.92;;;;;;;29.22;43.32;95431.38;5046092;28;20048;-75
2021/08/15 05:31:52;;;;;;;3.78;3.05;;;;;;;29.24;42.96;95428.84;5043510;28;20507;-76
2021/08/15 05:34:18;;;;;;;3.42;2.92;;;;;;;29.24;43.00;95428.84;5045769;28;20484;-75
2021/08/15 05:36:43;;;;;;;3.85;3.25;;;;;;;29.24;43.24;95422.63;5044877;28;20036;-76
2021/08/15 05:39:08;;;;;;;3.28;2.80;;;;;;;29.25;43.62;95429.56;5044702;28;20025;-76
2021/08/15 05:41:34;;;;;;;3.55;2.65;;;;;;;29.24;42.90;95419.88;5044530;28;20032;-74
2021/08/15 05:43:59;;;;;;;3.22;2.70;;;;;;;29.23;43.20;95426.59;5045717;28;20029;-76
2021/08/15 05:46:25;;;;;;;3.40;2.92;;;;;;;29.25;43.01;95418.56;5044649;28;20906;-74
2021/08/15 05:48:50;;;;;;;3.85;2.78;;;;;;;29.26;43.64;95425.56;5045685;28;20020;-75
2021/08/15 05:51:16;;;;;;;3.15;2.72;;;;;;;29.26;43.15;95431.78;5043621;28;20029;-75
2021/08/15 05:53:41;;;;;;;3.10;2.80;;;;;;;29.28;42.97;95417.50;5044401;28;20364;-74
2021/08/15 05:56:07;;;;;;;3.13;2.55;;;;;;;29.24;43.18;95408.88;5044888;28;20032;-76
2021/08/15 05:58:32;;;;;;;3.20;2.80;;;;;;;29.28;43.29;95412.00;5043787;28;20035;-75
2021/08/15 06:00:58;;;;;;;3.38;2.70;;;;;;;29.29;43.13;95413.47;5042976;28;20075;-75
2021/08/15 06:03:23;;;;;;;3.15;2.85;;;;;;;29.31;43.11;95416.41;5042000;28;20648;-74
2021/08/15 06:05:48;;;;;;;2.97;2.67;;;;;;;29.31;43.60;95410.91;5044377;28;20033;-76
2021/08/15 06:08:15;;;;;;;3.47;3.03;;;;;;;29.33;43.32;95413.88;5044403;28;20037;-75
2021/08/15 06:10:41;;;;;;;3.67;2.60;;;;;;;29.35;42.88;95405.81;5046870;28;20051;-76
2021/08/15 06:13:09;;;;;;;3.38;2.95;;;;;;;29.36;43.22;95418.31;5043659;28;20518;-76
2021/08/15 06:15:34;;;;;;;3.53;3.22;;;;;;;29.36;43.44;95418.31;5061776;28;20029;-75
2021/08/15 06:18:00;;;;;;;4.07;2.78;;;;;;;29.28;43.24;95400.97;5045240;28;20039;-76
2021/08/15 06:20:25;;;;;;;3.30;2.83;;;;;;;29.38;43.34;95415.75;5043102;28;20407;-74
2021/08/15 06:22:51;;;;;;;3.20;2.63;;;;;;;29.39;42.92;95406.94;5045491;28;20029;-74
2021/08/15 06:25:16;;;;;;;3.38;2.88;;;;;;;29.39;43.35;95406.22;5041961;28;20502;-75
2021/08/15 06:27:44;;;;;;;3.17;2.88;;;;;;;29.40;42.95;95413.94;5044895;28;20457;-76
2021/08/15 06:30:13;;;;;;;3.00;2.67;;;;;;;29.41;43.29;95409.16;5044139;28;20033;-77
2021/08/15 06:32:49;;;;;;;3.17;2.67;;;;;;;29.41;43.30;95403.66;5040402;28;20028;-76
2021/08/15 06:35:16;;;;;;;3.65;2.65;;;;;;;29.43;43.33;95406.59;5045087;28;20032;-74
2021/08/15 06:37:42;;;;;;;2.90;2.40;;;;;;;29.45;42.85;95409.56;5038827;28;20539;-75
2021/08/15 06:40:08;;;;;;;3.20;2.72;;;;;;;29.45;42.72;95415.06;5044908;28;20025;-75
2021/08/15 06:42:33;;;;;;;2.65;2.42;;;;;;;29.45;43.36;95404.06;5043389;28;20021;-75
2021/08/15 06:44:58;;;;;;;2.97;2.55;;;;;;;29.47;43.34;95413.25;5042374;28;20033;-75
2021/08/15 06:47:24;;;;;;;3.05;2.67;;;;;;;29.40;43.14;95396.66;5043485;28;20040;-75
2021/08/15 06:49:49;;;;;;;3.58;2.88;;;;;;;29.44;43.45;95408.09;5041342;28;20041;-76
2021/08/15 06:52:15;;;;;;;2.65;2.30;;;;;;;29.44;43.06;95408.81;5046432;28;20028;-76
2021/08/15 06:54:44;;;;;;;3.20;2.90;;;;;;;29.46;43.25;95405.53;5046298;28;20025;-75
2021/08/15 06:57:09;;;;;;;2.97;2.63;;;;;;;29.47;43.21;95401.50;5044984;28;20059;-75
2021/08/15 06:59:34;;;;;;;3.03;2.67;;;;;;;29.49;43.27;95404.44;5047791;28;20032;-74
2021/08/15 07:02:00;;;;;;;3.55;2.85;;;;;;;29.51;42.98;95407.41;5046848;28;20052;-75
2021/08/15 07:04:25;;;;;;;3.08;2.70;;;;;;;29.54;42.81;95395.31;5048219;28;20028;-76
2021/08/15 07:06:51;;;;;;;2.65;2.45;;;;;;;29.52;42.75;95404.13;5046770;28;20033;-76
2021/08/15 07:09:16;;;;;;;3.03;2.70;;;;;;;29.54;43.14;95400.81;4996295;28;20048;-77
2021/08/15 07:11:42;;;;;;;2.83;2.50;;;;;;;29.55;43.17;95402.28;5037177;28;20032;-76
2021/08/15 07:14:07;;;;;;;3.38;2.65;;;;;;;29.56;43.17;95401.00;5028186;28;20017;-75
2021/08/15 07:16:33;;;;;;;3.60;2.97;;;;;;;29.53;42.55;95393.84;5026807;28;20026;-75
2021/08/15 07:18:58;;;;;;;2.88;2.38;;;;;;;29.58;42.96;95401.19;5028315;28;20087;-76
2021/08/15 07:21:24;;;;;;;3.17;2.47;;;;;;;29.59;43.04;95391.66;5026522;28;20030;-76
2021/08/15 07:23:49;;;;;;;3.42;2.95;;;;;;;29.56;42.71;95387.97;5028156;28;20041;-76
2021/08/15 07:26:15;;;;;;;3.00;2.70;;;;;;;29.65;42.47;95395.75;5025608;28;20029;-74
2021/08/15 07:28:40;;;;;;;3.17;2.83;;;;;;;29.67;42.63;95392.44;5028339;28;20484;-75
2021/08/15 07:31:06;;;;;;;3.33;2.60;;;;;;;29.67;42.47;95391.19;5026340;28;20025;-74
2021/08/15 07:33:31;;;;;;;3.03;2.72;;;;;;;29.69;42.90;95396.88;5028638;28;20037;-76
2021/08/15 07:35:57;;;;;;;3.15;2.80;;;;;;;29.71;42.66;95388.78;5026427;28;20044;-75
2021/08/15 07:38:23;;;;;;;3.90;2.70;;;;;;;29.71;42.52;95388.78;5028646;28;20049;-75
2021/08/15 07:40:54;;;;;;;2.95;2.45;;;;;;;29.69;42.56;95391.38;5027483;28;20036;-74
2021/08/15 07:43:20;;;;;;;3.85;3.17;;;;;;;29.74;42.82;95393.22;5040680;28;20065;-75
2021/08/15 07:45:46;;;;;;;2.85;2.53;;;;;;;29.77;42.54;95375.59;5045653;28;20061;-74
2021/08/15 07:48:11;;;;;;;3.30;2.75;;;;;;;29.77;42.10;95381.13;5044271;28;20484;-76
2021/08/15 07:50:38;;;;;;;3.05;2.58;;;;;;;29.78;41.95;95381.88;5029048;28;20033;-74
2021/08/15 07:53:23;;;;;;;3.30;2.50;;;;;;;29.80;42.84;95385.56;5009305;28;20113;-75
2021/08/15 07:55:49;;;;;;;3.38;2.67;;;;;;;29.78;42.61;95377.09;5018781;28;20029;-77
2021/08/15 07:58:15;;;;;;;2.97;2.60;;;;;;;29.75;42.12;95377.44;5035924;28;20029;-76
2021/08/15 08:00:41;;;;;;;3.50;2.78;;;;;;;29.82;42.30;95380.28;5013840;28;20045;-76
2021/08/15 08:03:06;;;;;;;3.58;2.92;;;;;;;29.80;42.62;95380.06;5031112;28;20036;-76
2021/08/15 08:05:32;;;;;;;3.22;2.50;;;;;;;29.82;42.22;95372.00;5032120;28;20084;-77
2021/08/15 08:07:57;;;;;;;3.42;2.75;;;;;;;29.81;42.23;95376.03;5031246;28;20034;-76
2021/08/15 08:10:23;;;;;;;2.90;2.58;;;;;;;29.79;42.24;95378.59;5012851;28;20017;-75
2021/08/15 08:12:48;;;;;;;2.80;2.50;;;;;;;29.78;42.61;95371.59;5014725;28;20116;-75
2021/08/15 08:15:14;;;;;;;3.20;2.80;;;;;;;29.79;42.73;95370.34;5029581;28;20550;-76
2021/08/15 08:17:39;;;;;;;3.33;2.85;;;;;;;29.79;42.13;95367.59;5010709;28;20028;-76
2021/08/15 08:20:05;;;;;;;2.80;2.45;;;;;;;29.81;42.47;95370.53;5011917;28;20056;-76
2021/08/15 08:22:30;;;;;;;2.80;2.50;;;;;;;29.82;42.07;95372.00;5028617;28;20097;-75
2021/08/15 08:24:56;;;;;;;3.25;2.60;;;;;;;29.83;42.33;95362.44;5031372;28;20033;-75
2021/08/15 08:27:22;;;;;;;3.03;2.58;;;;;;;29.83;42.41;95362.44;5029737;28;20052;-74
2021/08/15 08:29:47;;;;;;;3.22;2.50;;;;;;;29.82;42.15;95360.25;5030131;28;20036;-75
2021/08/15 08:32:13;;;;;;;2.65;2.45;;;;;;;29.85;41.93;95348.13;5029362;28;20029;-75
2021/08/15 08:34:39;;;;;;;2.67;2.40;;;;;;;29.80;42.26;95357.31;5027013;28;20635;-77
2021/08/15 08:37:04;;;;;;;3.42;2.72;;;;;;;29.89;42.14;95349.25;5024603;28;20393;-74
2021/08/15 08:39:30;;;;;;;3.17;2.75;;;;;;;29.90;41.88;95350.75;5027296;28;20069;-74
2021/08/15 08:41:58;;;;;;;3.22;2.60;;;;;;;29.92;42.11;95342.66;5024341;28;20092;-76
2021/08/15 08:44:23;;;;;;;2.92;2.25;;;;;;;29.92;42.04;95345.41;5025452;28;20041;-77
2021/08/15 08:46:49;;;;;;;2.83;2.42;;;;;;;29.92;42.36;95337.16;5024381;28;20053;-75
2021/08/15 08:49:15;;;;;;;3.30;2.45;;;;;;;29.82;42.06;95322.44;5009575;28;20032;-76
2021/08/15 08:51:41;;;;;;;3.05;2.42;;;;;;;29.94;41.76;95334.63;5025194;28;20120;-78
2021/08/15 08:54:06;;;;;;;3.15;2.45;;;;;;;29.95;41.77;95327.81;5026924;28;20499;-76
2021/08/15 08:56:32;;;;;;;3.10;2.50;;;;;;;29.96;41.90;95321.03;5024073;28;20476;-77
2021/08/15 08:58:57;;;;;;;3.92;2.70;;;;;;;29.96;41.55;95321.03;5023231;28;20506;-76
2021/08/15 09:01:23;;;;;;;2.90;2.40;;;;;;;29.96;42.25;95315.50;5023712;28;20052;-74
2021/08/15 09:03:48;;;;;;;2.75;2.47;;;;;;;29.94;42.04;95307.06;5025542;28;20025;-74
2021/08/15 09:06:24;;;;;;;3.15;2.33;;;;;;;29.98;41.69;95312.94;5025157;28;20025;-76
2021/08/15 09:08:50;;;;;;;2.72;2.40;;;;;;;29.97;42.10;95319.00;5025326;28;20130;-77
2021/08/15 09:11:25;;;;;;;2.72;2.30;;;;;;;29.98;41.91;95312.22;5021557;28;20060;-76
2021/08/15 09:14:08;;;;;;;2.90;2.60;;;;;;;29.98;41.69;95310.19;5041112;28;20029;-77
2021/08/15 09:16:48;;;;;;;3.30;2.60;;;;;;;29.99;41.63;95300.66;5018656;28;20913;-76
2021/08/15 09:19:48;;;;;;;2.90;2.30;;;;;;;30.01;41.90;95305.59;5021422;28;20041;-77
2021/08/15 09:22:13;;;;;;;;;;;;;;;30.00;42.08;95310.41;5019859;28;20437;-75
2021/08/15 09:24:48;;;;;;;3.23;2.40;;;;;;;30.00;42.03;95304.88;5026459;28;19920;-75
2021/08/15 09:27:32;;;;;;;3.03;2.30;;;;;;;29.95;42.18;95297.50;5026902;28;20299;-76
2021/08/15 09:30:05;;;;;;;2.75;2.40;;;;;;;30.02;41.90;95296.81;5038587;28;20104;-76
2021/08/15 09:32:31;;;;;;;3.17;2.83;;;;;;;30.02;41.73;95296.81;5026207;28;20029;-76
2021/08/15 09:34:58;;;;;;;2.70;2.40;;;;;;;30.03;41.87;95292.78;5023244;28;20844;-75
2021/08/15 09:37:26;;;;;;;3.47;2.72;;;;;;;30.03;41.90;95287.25;5024179;28;20025;-76
2021/08/15 09:39:51;;;;;;;2.90;2.60;;;;;;;30.05;41.78;95284.69;5022814;28;20104;-76
2021/08/15 09:42:17;;;;;;;3.10;2.53;;;;;;;30.04;41.89;95285.97;5024467;28;20017;-76
2021/08/15 09:44:42;;;;;;;2.90;2.53;;;;;;;30.05;41.93;95279.19;5024277;28;20080;-76
2021/08/15 09:47:12;;;;;;;3.70;2.60;;;;;;;30.06;41.61;95280.66;5023250;28;20033;-75
2021/08/15 09:49:47;;;;;;;2.95;2.50;;;;;;;30.06;41.62;95275.16;5023758;28;20033;-76
2021/08/15 09:52:19;;;;;;;2.80;2.40;;;;;;;30.07;41.58;95276.59;5021789;28;20500;-76
2021/08/15 09:54:55;;;;;;;3.30;2.50;;;;;;;30.04;42.16;95266.69;5025694;28;20076;-75
2021/08/15 09:57:34;;;;;;;2.85;2.28;;;;;;;30.05;41.83;95257.13;5004462;28;20041;-75
2021/08/15 10:00:00;;;;;;;2.78;2.13;;;;;;;30.07;41.84;95262.09;5024212;28;20420;-75
2021/08/15 10:02:25;;;;;;;2.75;2.33;;;;;;;30.09;41.70;95252.00;5023540;28;20073;-76
2021/08/15 10:04:53;;;;;;;3.00;2.53;;;;;;;30.08;41.75;95256.03;5025317;28;20110;-75
2021/08/15 10:07:19;;;;;;;2.70;2.33;;;;;;;30.08;42.05;95256.03;5024383;28;20103;-74
2021/08/15 10:09:44;;;;;;;3.10;2.38;;;;;;;30.09;42.01;95249.25;5025247;28;20029;-75
2021/08/15 10:12:10;;;;;;;2.78;2.50;;;;;;;30.10;41.91;95253.47;5023955;28;20025;-77
2021/08/15 10:14:35;;;;;;;2.55;2.17;;;;;;;30.10;41.97;95242.44;5040119;28;20574;-77
2021/08/15 10:17:05;;;;;;;2.60;2.35;;;;;;;30.13;41.87;95241.34;5024161;28;20053;-76
2021/08/15 10:19:53;;;;;;;2.70;2.28;;;;;;;30.12;41.54;95234.38;5040685;28;20113;-76
2021/08/15 10:22:23;;;;;;;2.90;2.47;;;;;;;30.07;41.88;95221.50;5035268;28;20034;-74
2021/08/15 10:24:50;;;;;;;2.90;2.58;;;;;;;30.12;41.82;95228.88;5007899;28;20029;-75
2021/08/15 10:27:42;;;;;;;2.90;2.55;;;;;;;30.15;42.03;95238.81;5024086;28;20036;-75
2021/08/15 10:30:14;;;;;;;2.60;2.30;;;;;;;30.13;41.55;95230.31;5024379;28;20539;-75
2021/08/15 10:33:02;;;;;;;2.50;2.30;;;;;;;30.14;42.04;95220.78;5040444;28;20063;-75
2021/08/15 10:35:31;;;;;;;2.35;2.15;;;;;;;30.07;41.53;95221.50;5013146;28;20045;-76
2021/08/15 10:37:58;;;;;;;2.70;2.30;;;;;;;30.13;41.57;95230.31;5024044;28;20044;-75
2021/08/15 10:40:38;;;;;;;2.33;2.10;;;;;;;30.14;42.19;95225.56;5024166;28;20039;-75
2021/08/15 10:43:11;;;;;;;2.78;2.30;;;;;;;30.15;41.74;95227.78;5022866;28;20508;-75
2021/08/15 10:45:36;;;;;;;2.35;2.15;;;;;;;30.15;41.48;95227.78;5024644;28;20043;-75
2021/08/15 10:48:05;;;;;;;2.95;2.30;;;;;;;30.17;42.11;95224.47;5032335;28;20029;-74
2021/08/15 10:50:40;;;;;;;2.92;2.58;;;;;;;30.16;41.68;95212.69;5005711;28;20037;-76
2021/08/15 10:53:30;;;;;;;3.25;2.50;;;;;;;30.15;42.21;95211.25;5009882;28;20033;-76
2021/08/15 10:55:57;;;;;;;2.47;2.22;;;;;;;30.15;41.82;95205.72;5024076;28;20026;-75
2021/08/15 10:58:37;;;;;;;2.72;2.40;;;;;;;30.15;41.79;95208.50;5020409;28;20485;-75
2021/08/15 11:01:10;;;;;;;2.50;2.30;;;;;;;30.18;41.73;95199.13;5019999;28;20046;-76
2021/08/15 11:03:56;;;;;;;2.42;2.20;;;;;;;30.18;41.63;95199.13;5021274;28;20052;-74
2021/08/15 11:06:30;;;;;;;2.75;2.20;;;;;;;30.19;41.64;95200.56;5023535;28;20059;-75
2021/08/15 11:09:00;;;;;;;2.47;2.22;;;;;;;30.11;40.15;95188.81;5024526;28;20615;-75
2021/08/15 11:11:26;;;;;;;2.55;2.35;;;;;;;29.61;38.87;95190.91;5022544;28;20167;-74
2021/08/15 11:14:18;;;;;;;2.88;2.15;;;;;;;29.04;38.42;95178.53;5024679;28;20662;-75
2021/08/15 11:16:51;;;;;;;2.38;2.17;;;;;;;28.63;38.30;95183.41;5012156;28;20042;-75
2021/08/15 11:19:17;;;;;;;3.03;2.00;;;;;;;28.28;37.66;95180.56;5024837;28;20643;-74
2021/08/15 11:22:13;;;;;;;3.05;2.30;;;;;;;27.98;37.20;95183.06;5022638;28;20038;-76
2021/08/15 11:24:46;;;;;;;3.55;2.28;;;;;;;27.68;36.71;95184.03;5024681;28;20029;-76
2021/08/15 11:27:18;;;;;;;2.28;2.08;;;;;;;27.34;35.80;95178.50;5023961;28;20021;-76
2021/08/15 11:29:45;;;;;;;3.03;2.20;;;;;;;27.11;35.09;95176.03;5039184;28;20037;-76
2021/08/15 11:32:15;;;;;;;2.90;2.33;;;;;;;26.79;35.21;95162.44;5022353;28;20033;-75
2021/08/15 11:35:06;;;;;;;2.67;2.17;;;;;;;26.51;34.97;95158.00;5024113;28;20013;-75